Time,TemperatureF,DewpointF,PressureIn,WindDirection,WindDirectionDegrees,WindSpeedMPH,WindSpeedGustMPH,Humidity,HourlyPrecipIn,Conditions,Clouds,dailyrainin,SoftwareType,DateUTC
2013-12-02 00:00:00,45.0,43.0,-100.00,South,181,2.0,-999.0,93,0.00,,,-99.99,,2013-12-02 08:00:00,
2013-12-02 00:42:00,45.0,43.0,-100.00,South,181,2.0,-999.0,93,0.00,,,-99.99,,2013-12-02 08:42:00,
2013-12-02 00:52:00,45.0,43.0,-100.00,South,181,2.0,-999.0,93,0.00,,,-99.99,,2013-12-02 08:52:00,
2013-12-02 01:00:00,44.0,42.0,-100.00,SSE,167,2.0,-999.0,94,0.00,,,-99.99,,2013-12-02 09:00:00,
2013-12-02 01:43:00,44.0,42.0,-100.00,SSE,167,2.0,-999.0,94,0.00,,,-99.99,,2013-12-02 09:43:00,
2013-12-02 01:54:00,44.0,42.0,-100.00,SSE,167,2.0,-999.0,94,0.00,,,-99.99,,2013-12-02 09:54:00,
2013-12-02 02:00:00,42.0,40.0,-100.00,South,185,3.0,-999.0,94,0.00,,,-99.99,,2013-12-02 10:00:00,
2013-12-02 02:42:00,42.0,40.0,-100.00,South,185,3.0,-999.0,94,0.00,,,-99.99,,2013-12-02 10:42:00,
2013-12-02 02:52:00,42.0,40.0,-100.00,South,185,3.0,-999.0,94,0.00,,,-99.99,,2013-12-02 10:52:00,
2013-12-02 10:42:00,43.0,42.0,-100.00,South,180,3.0,-999.0,94,0.00,,,-99.99,,2013-12-02 18:42:00,
2013-12-02 11:00:00,51.0,47.0,-100.00,South,170,3.0,-999.0,87,0.00,,,-99.99,,2013-12-02 19:00:00,
2013-12-02 11:42:00,51.0,47.0,-100.00,South,170,3.0,-999.0,87,0.00,,,-99.99,,2013-12-02 19:42:00,
2013-12-02 11:52:00,51.0,47.0,-100.00,South,170,3.0,-999.0,87,0.00,,,-99.99,,2013-12-02 19:52:00,
2013-12-02 12:00:00,57.0,45.0,-100.00,NW,305,5.0,-999.0,64,0.00,,,-99.99,,2013-12-02 20:00:00,
2013-12-02 12:42:00,57.0,45.0,-100.00,NW,305,5.0,-999.0,64,0.00,,,-99.99,,2013-12-02 20:42:00,
2013-12-02 12:52:00,57.0,45.0,-100.00,NW,305,5.0,-999.0,64,0.00,,,-99.99,,2013-12-02 20:52:00,
2013-12-02 13:00:00,60.0,46.0,-100.00,NW,307,4.0,-999.0,59,0.00,,,-99.99,,2013-12-02 21:00:00,
2013-12-02 13:43:00,60.0,46.0,-100.00,NW,307,4.0,-999.0,59,0.00,,,-99.99,,2013-12-02 21:43:00,
2013-12-02 13:53:00,60.0,46.0,-100.00,NW,307,4.0,-999.0,59,0.00,,,-99.99,,2013-12-02 21:53:00,
2013-12-02 14:00:00,59.0,46.0,-100.00,NNW,327,11.0,-999.0,61,0.00,,,-99.99,,2013-12-02 22:00:00,
2013-12-02 14:43:00,59.0,46.0,-100.00,NNW,327,11.0,-999.0,61,0.00,,,-99.99,,2013-12-02 22:43:00,
2013-12-02 14:53:00,59.0,46.0,-100.00,NNW,327,11.0,-999.0,61,0.00,,,-99.99,,2013-12-02 22:53:00,
2013-12-02 15:00:00,58.0,46.0,-100.00,NW,325,7.0,-999.0,64,0.00,,,-99.99,,2013-12-02 23:00:00,
2013-12-02 15:42:00,58.0,46.0,-100.00,NW,325,7.0,-999.0,64,0.00,,,-99.99,,2013-12-02 23:42:00,
2013-12-02 15:53:00,58.0,46.0,-100.00,NW,325,7.0,-999.0,64,0.00,,,-99.99,,2013-12-02 23:53:00,
2013-12-02 16:00:00,57.0,47.0,-100.00,NW,325,4.0,-999.0,68,0.00,,,-99.99,,2013-12-03 00:00:00,
2013-12-02 16:42:00,57.0,47.0,-100.00,NW,325,4.0,-999.0,68,0.00,,,-99.99,,2013-12-03 00:42:00,
2013-12-02 16:52:00,57.0,47.0,-100.00,NW,325,4.0,-999.0,68,0.00,,,-99.99,,2013-12-03 00:52:00,
2013-12-02 17:00:00,57.0,47.0,-100.00,WNW,297,4.0,-999.0,69,0.00,,,-99.99,,2013-12-03 01:00:00,
2013-12-02 17:42:00,57.0,47.0,-100.00,WNW,297,4.0,-999.0,69,0.00,,,-99.99,,2013-12-03 01:42:00,
2013-12-02 17:52:00,57.0,47.0,-100.00,WNW,297,4.0,-999.0,69,0.00,,,-99.99,,2013-12-03 01:52:00,
2013-12-02 18:00:00,55.0,48.0,-100.00,NNW,329,4.0,-999.0,76,0.00,,,-99.99,,2013-12-03 02:00:00,
2013-12-02 18:42:00,55.0,48.0,-100.00,NNW,329,4.0,-999.0,76,0.00,,,-99.99,,2013-12-03 02:42:00,
2013-12-02 18:52:00,55.0,48.0,-100.00,NNW,329,4.0,-999.0,76,0.00,,,-99.99,,2013-12-03 02:52:00,
2013-12-02 19:00:00,54.0,49.0,-100.00,NW,308,2.0,-999.0,83,0.00,,,-99.99,,2013-12-03 03:00:00,
2013-12-02 19:43:00,54.0,49.0,-100.00,NW,308,2.0,-999.0,83,0.00,,,-99.99,,2013-12-03 03:43:00,
2013-12-02 19:53:00,54.0,49.0,-100.00,NW,308,2.0,-999.0,83,0.00,,,-99.99,,2013-12-03 03:53:00,
2013-12-02 20:00:00,53.0,50.0,-100.00,NW,316,1.0,-999.0,90,0.00,,,-99.99,,2013-12-03 04:00:00,
2013-12-02 20:43:00,53.0,50.0,-100.00,NW,316,1.0,-999.0,90,0.00,,,-99.99,,2013-12-03 04:43:00,
2013-12-02 20:52:00,53.0,50.0,-100.00,NW,316,1.0,-999.0,90,0.00,,,-99.99,,2013-12-03 04:52:00,
2013-12-02 21:00:00,53.0,51.0,-100.00,East,89,1.0,-999.0,93,0.00,,,-99.99,,2013-12-03 05:00:00,
2013-12-02 21:43:00,53.0,51.0,-100.00,East,89,1.0,-999.0,93,0.00,,,-99.99,,2013-12-03 05:43:00,
2013-12-02 21:53:00,53.0,51.0,-100.00,East,89,1.0,-999.0,93,0.00,,,-99.99,,2013-12-03 05:53:00,
2013-12-02 22:00:00,53.0,51.0,-100.00,NNW,335,5.0,-999.0,93,0.00,,,-99.99,,2013-12-03 06:00:00,
2013-12-02 22:42:00,53.0,51.0,-100.00,NNW,335,5.0,-999.0,93,0.00,,,-99.99,,2013-12-03 06:42:00,
2013-12-02 22:52:00,53.0,51.0,-100.00,NNW,335,5.0,-999.0,93,0.00,,,-99.99,,2013-12-03 06:52:00,
2013-12-02 23:00:00,52.0,50.0,-100.00,NNW,331,4.0,-999.0,92,0.00,,,-99.99,,2013-12-03 07:00:00,
2013-12-02 23:42:00,52.0,50.0,-100.00,NNW,331,4.0,-999.0,92,0.00,,,-99.99,,2013-12-03 07:42:00,
2013-12-02 23:52:00,52.0,50.0,-100.00,NNW,331,4.0,-999.0,92,0.00,,,-99.99,,2013-12-03 07:52:00,